createdAt,value
2019-01-15T00:00:01.004Z,15.93
2019-01-15T00:02:26.809Z,14.20
2019-01-15T00:04:52.578Z,13.60
2019-01-15T00:10:45.460Z,18.60
2019-01-15T00:13:11.246Z,18.42
2019-01-15T00:15:37.018Z,14.53
2019-01-15T00:18:02.800Z,12.33
2019-01-15T00:20:28.589Z,15.43
2019-01-15T00:22:54.380Z,14.17
2019-01-15T00:25:20.158Z,13.93
2019-01-15T00:27:45.933Z,9.97
2019-01-15T00:30:31.613Z,17.27
2019-01-15T00:32:57.387Z,16.40
2019-01-15T00:35:23.171Z,11.43
2019-01-15T00:37:48.952Z,15.30
2019-01-15T00:43:28.083Z,18.35
2019-01-15T00:45:53.860Z,10.70
2019-01-15T00:48:19.630Z,14.27
2019-01-15T00:50:45.422Z,15.17
2019-01-15T00:53:11.209Z,17.60
2019-01-15T00:55:37.001Z,13.30
2019-01-15T00:58:02.790Z,13.37
2019-01-15T01:00:28.701Z,11.17
2019-01-15T01:02:54.479Z,17.37
2019-01-15T01:05:20.257Z,12.80
2019-01-15T01:07:46.032Z,18.13
2019-01-15T01:10:31.706Z,16.37
2019-01-15T01:12:57.492Z,16.40
2019-01-15T01:15:23.286Z,13.50
2019-01-15T01:17:49.058Z,15.17
2019-01-15T01:20:56.519Z,19.97
2019-01-15T01:23:22.309Z,17.87
2019-01-15T01:25:48.096Z,15.00
2019-01-15T01:28:13.894Z,15.00
2019-01-15T01:30:39.722Z,14.43
2019-01-15T01:33:05.527Z,19.17
2019-01-15T01:35:31.299Z,24.07
2019-01-15T01:37:57.094Z,15.27
2019-01-15T01:40:22.891Z,15.00
2019-01-15T01:42:48.780Z,16.30
2019-01-15T01:45:56.213Z,16.20
2019-01-15T01:48:22.022Z,16.50
2019-01-15T01:50:47.790Z,11.73
2019-01-15T01:53:13.574Z,14.80
2019-01-15T01:55:39.357Z,11.40
2019-01-15T01:58:05.168Z,19.50
2019-01-15T02:00:30.965Z,15.70
2019-01-15T02:02:56.762Z,15.20
2019-01-15T02:05:22.635Z,16.80
2019-01-15T02:07:48.429Z,11.60
2019-01-15T02:10:55.869Z,14.60
2019-01-15T02:13:21.679Z,16.73
2019-01-15T02:15:47.456Z,11.77
2019-01-15T02:18:13.258Z,14.07
2019-01-15T02:20:39.060Z,18.10
2019-01-15T02:23:04.867Z,12.37
2019-01-15T02:25:30.648Z,19.87
2019-01-15T02:27:56.432Z,17.20
2019-01-15T02:33:49.288Z,12.97
2019-01-15T02:36:15.062Z,12.87
2019-01-15T02:38:40.847Z,13.40
2019-01-15T02:41:06.658Z,18.57
2019-01-15T02:43:32.457Z,10.33
2019-01-15T02:45:58.227Z,10.20
2019-01-15T02:48:24.038Z,15.27
2019-01-15T02:50:49.903Z,15.27
2019-01-15T02:53:15.687Z,10.77
2019-01-15T02:55:41.445Z,15.30
2019-01-15T02:58:07.231Z,13.53
2019-01-15T03:00:33.017Z,14.93
2019-01-15T03:02:58.784Z,15.43
2019-01-15T03:05:24.553Z,13.53
2019-01-15T03:07:50.360Z,16.53
2019-01-15T03:10:57.877Z,12.40
2019-01-15T03:13:23.677Z,12.30
2019-01-15T03:15:49.484Z,15.43
2019-01-15T03:18:15.248Z,13.10
2019-01-15T03:20:41.049Z,16.53
2019-01-15T03:23:06.852Z,13.17
2019-01-15T03:25:32.640Z,10.07
2019-01-15T03:27:58.432Z,13.07
2019-01-15T03:30:24.322Z,14.00
2019-01-15T03:35:57.271Z,13.27
2019-01-15T03:38:23.035Z,11.87
2019-01-15T03:40:48.844Z,16.27
2019-01-15T03:43:14.599Z,17.13
2019-01-15T03:45:40.394Z,16.23
2019-01-15T03:48:06.165Z,15.67
2019-01-15T03:50:31.958Z,13.90
2019-01-15T03:52:57.747Z,11.87
2019-01-15T03:55:23.636Z,17.23
2019-01-15T03:57:49.432Z,18.73
2019-01-15T04:03:29.192Z,11.43
2019-01-15T04:05:54.980Z,11.43
2019-01-15T04:08:20.746Z,11.50
2019-01-15T04:10:46.537Z,10.10
2019-01-15T04:13:12.429Z,16.70
2019-01-15T04:15:38.327Z,10.80
2019-01-15T04:18:04.103Z,14.30
2019-01-15T04:20:29.936Z,10.77
2019-01-15T04:22:55.706Z,17.53
2019-01-15T04:25:21.496Z,10.60
2019-01-15T04:27:47.266Z,13.60
2019-01-15T04:30:33.194Z,10.17
2019-01-15T04:32:58.951Z,18.07
2019-01-15T04:35:24.847Z,15.53
2019-01-15T04:37:50.596Z,13.93
2019-01-15T04:40:58.066Z,17.73
2019-01-15T04:43:23.825Z,17.87
2019-01-15T04:45:49.603Z,15.90
2019-01-15T04:48:15.393Z,16.40
2019-01-15T04:50:41.178Z,17.17
2019-01-15T04:53:06.942Z,10.50
2019-01-15T04:55:32.723Z,21.40
2019-01-15T04:57:58.490Z,20.70
2019-01-15T05:00:24.365Z,18.00
2019-01-15T05:05:37.421Z,11.40
2019-01-15T05:08:03.164Z,17.83
2019-01-15T05:10:28.924Z,15.77
2019-01-15T05:12:54.678Z,13.13
2019-01-15T05:15:20.509Z,13.30
2019-01-15T05:17:46.215Z,16.17
2019-01-15T05:20:31.863Z,13.17
2019-01-15T05:22:57.615Z,11.57
2019-01-15T05:25:23.410Z,11.77
2019-01-15T05:27:49.163Z,15.63
2019-01-15T05:30:56.603Z,16.20
2019-01-15T05:33:22.363Z,10.87
2019-01-15T05:35:48.127Z,15.17
2019-01-15T05:38:13.877Z,14.63
2019-01-15T05:40:39.637Z,17.40
2019-01-15T05:43:05.391Z,17.23
2019-01-15T05:53:30.661Z,14.60
2019-01-15T05:58:28.632Z,13.07
2019-01-15T06:00:54.383Z,20.23
2019-01-15T06:03:20.161Z,17.30
2019-01-15T06:05:45.909Z,13.03
2019-01-15T06:08:11.668Z,15.63
2019-01-15T06:10:37.424Z,13.33
2019-01-15T06:13:03.201Z,14.60
2019-01-15T06:15:28.955Z,17.40
2019-01-15T06:17:54.735Z,14.30
2019-01-15T06:20:40.383Z,14.90
2019-01-15T06:23:06.142Z,14.43
2019-01-15T06:25:31.903Z,16.53
2019-01-15T06:27:57.671Z,20.33
2019-01-15T06:30:23.426Z,19.70
2019-01-15T06:36:02.915Z,18.53
2019-01-15T06:38:28.671Z,17.33
2019-01-15T06:40:54.433Z,22.50
2019-01-15T06:43:20.201Z,21.07
2019-01-15T06:45:45.949Z,19.50
2019-01-15T06:48:11.713Z,19.50
2019-01-15T06:50:37.501Z,22.57
2019-01-15T06:53:03.268Z,19.57
2019-01-15T06:55:29.012Z,21.87
2019-01-15T06:57:54.791Z,21.23
2019-01-15T07:00:40.406Z,22.03
2019-01-15T07:03:06.170Z,24.87
2019-01-15T07:05:31.919Z,24.70
2019-01-15T07:07:57.681Z,28.43
2019-01-15T07:11:05.114Z,24.70
2019-01-15T07:13:30.881Z,24.77
2019-01-15T07:18:43.943Z,25.33
2019-01-15T07:21:09.696Z,24.60
2019-01-15T07:23:35.488Z,21.87
2019-01-15T07:26:01.238Z,26.17
2019-01-15T07:28:26.996Z,25.43
2019-01-15T07:30:52.750Z,26.90
2019-01-15T07:34:00.190Z,24.27
2019-01-15T07:36:25.946Z,21.10
2019-01-15T07:38:51.709Z,23.67
2019-01-15T07:41:17.460Z,20.73
2019-01-15T07:43:43.221Z,19.60
2019-01-15T07:46:08.975Z,26.40
2019-01-15T07:48:34.735Z,16.27
2019-01-15T07:51:00.493Z,16.73
2019-01-15T07:53:26.252Z,22.30
2019-01-15T07:55:52.003Z,24.63
2019-01-15T07:58:17.767Z,17.73
2019-01-15T08:00:43.525Z,22.33
2019-01-15T08:03:09.284Z,21.53
2019-01-15T08:05:35.036Z,23.90
2019-01-15T08:08:00.803Z,21.40
2019-01-15T08:10:26.556Z,19.47
2019-01-15T08:12:52.320Z,20.30
2019-01-15T08:15:59.765Z,15.90
2019-01-15T08:18:25.532Z,23.67
2019-01-15T08:20:51.288Z,24.30
2019-01-15T08:23:17.073Z,26.50
2019-01-15T08:25:42.841Z,32.67
2019-01-15T08:28:09.551Z,23.83
2019-01-15T08:34:02.962Z,23.30
2019-01-15T08:36:28.749Z,22.60
2019-01-15T08:38:54.468Z,21.93
2019-01-15T08:41:20.214Z,29.20
2019-01-15T08:43:45.979Z,25.63
2019-01-15T08:46:12.745Z,27.17
2019-01-15T08:56:24.355Z,28.87
2019-01-15T08:58:50.120Z,32.87
2019-01-15T09:01:15.873Z,28.97
2019-01-15T09:03:42.126Z,27.13
2019-01-15T09:06:07.932Z,24.23
2019-01-15T09:08:33.683Z,23.83
2019-01-15T09:10:59.440Z,27.17
2019-01-15T09:13:25.195Z,28.27
2019-01-15T09:15:50.952Z,23.47
2019-01-15T09:18:16.803Z,21.70
2019-01-15T09:20:42.562Z,25.17
2019-01-15T09:23:08.304Z,27.53
2019-01-15T09:25:34.083Z,22.47
2019-01-15T09:27:59.836Z,22.20
2019-01-15T09:30:25.602Z,22.67
2019-01-15T09:32:51.362Z,24.60
2019-01-15T09:35:17.239Z,23.27
2019-01-15T09:40:30.308Z,23.33
2019-01-15T09:42:56.057Z,20.27
2019-01-15T09:46:03.497Z,24.27
2019-01-15T09:51:16.562Z,18.33
2019-01-15T09:53:42.314Z,24.97
2019-01-15T09:56:08.082Z,22.53
2019-01-15T09:58:33.846Z,22.10
2019-01-15T10:00:59.604Z,29.47
2019-01-15T10:03:25.366Z,23.40
2019-01-15T10:05:51.130Z,20.23
2019-01-15T10:08:16.876Z,20.73
2019-01-15T10:10:42.642Z,19.07
2019-01-15T10:13:08.403Z,29.10
2019-01-15T10:15:34.169Z,25.10
2019-01-15T10:17:59.921Z,27.17
2019-01-15T10:20:25.679Z,23.50
2019-01-15T10:22:51.503Z,26.10
2019-01-15T10:31:09.167Z,20.13
2019-01-15T10:34:16.596Z,22.17
2019-01-15T10:36:42.161Z,15.93
2019-01-15T10:41:55.234Z,18.93
2019-01-15T10:44:20.979Z,17.30
2019-01-15T10:46:46.746Z,22.00
2019-01-15T10:49:12.506Z,16.83
2019-01-15T10:51:38.267Z,14.57
2019-01-15T10:54:04.011Z,16.50
2019-01-15T10:56:29.783Z,13.43
2019-01-15T10:58:55.596Z,12.47
2019-01-15T11:01:21.363Z,14.20
2019-01-15T11:03:47.120Z,10.80
2019-01-15T11:06:12.900Z,9.47
2019-01-15T11:08:38.656Z,14.00
2019-01-15T11:11:04.410Z,12.80
2019-01-15T11:13:30.228Z,12.17
2019-01-15T11:15:55.932Z,12.43
2019-01-15T11:18:21.690Z,12.80
2019-01-15T11:20:47.436Z,12.50
2019-01-15T11:23:13.210Z,15.13
2019-01-15T11:25:38.977Z,17.37
2019-01-15T11:28:46.414Z,15.37
2019-01-15T11:31:12.267Z,13.43
2019-01-15T11:33:38.023Z,14.90
2019-01-15T11:36:03.791Z,11.90
2019-01-15T11:38:29.556Z,15.10
2019-01-15T11:40:55.312Z,13.17
2019-01-15T11:43:21.078Z,12.63
2019-01-15T11:45:46.841Z,10.60
2019-01-15T11:48:12.614Z,13.23
2019-01-15T11:50:38.363Z,11.67
2019-01-15T11:53:04.129Z,13.40
2019-01-15T11:56:11.572Z,13.97
2019-01-15T11:58:37.436Z,11.73
2019-01-15T12:01:23.075Z,14.87
2019-01-15T12:04:08.732Z,11.63
2019-01-15T12:06:54.387Z,12.00
2019-01-15T12:09:40.040Z,13.50
2019-01-15T12:15:32.875Z,11.87
2019-01-15T12:18:18.544Z,10.47
2019-01-15T12:23:51.496Z,12.37
2019-01-15T12:26:37.151Z,12.37
2019-01-15T12:34:38.999Z,13.47
2019-01-15T12:37:24.643Z,11.20
2019-01-15T12:40:10.300Z,10.23
2019-01-15T12:42:55.948Z,10.17
2019-01-15T12:50:48.833Z,8.67
2019-01-15T12:53:34.469Z,8.23
2019-01-15T12:56:20.141Z,7.77
2019-01-15T12:59:05.785Z,10.03
2019-01-15T13:01:51.441Z,9.57
2019-01-15T13:04:37.092Z,8.97
2019-01-15T13:07:44.528Z,10.13
2019-01-15T13:10:30.300Z,8.67
2019-01-15T13:21:30.934Z,11.33
2019-01-15T13:24:16.574Z,9.00
2019-01-15T13:27:02.231Z,11.13
2019-01-15T13:29:47.876Z,12.90
2019-01-15T13:32:33.533Z,10.30
2019-01-15T13:38:06.498Z,9.83
2019-01-15T13:43:30.222Z,10.33
2019-01-15T13:46:15.876Z,8.97
2019-01-15T13:51:48.828Z,15.80
2019-01-15T13:54:34.475Z,10.23
2019-01-15T13:57:20.131Z,12.37
2019-01-15T14:00:05.780Z,16.80
2019-01-15T14:02:51.438Z,14.33
2019-01-15T14:05:37.087Z,9.47
2019-01-15T14:08:44.533Z,9.90
2019-01-15T14:11:30.187Z,12.67
2019-01-15T14:14:15.827Z,9.03
2019-01-15T14:17:01.487Z,9.03
2019-01-15T14:19:47.137Z,10.27
2019-01-15T14:22:32.791Z,10.33
2019-01-15T14:28:05.758Z,10.73
2019-01-15T14:30:51.506Z,12.13
2019-01-15T14:38:53.570Z,15.67
2019-01-15T14:41:39.225Z,9.30
2019-01-15T14:49:41.599Z,8.37
2019-01-15T14:57:52.762Z,7.47
2019-01-15T15:04:05.490Z,7.60
2019-01-15T15:06:51.128Z,7.50
2019-01-15T15:09:36.785Z,6.50
2019-01-15T15:20:51.080Z,8.87
2019-01-15T15:23:35.641Z,6.73
2019-01-15T15:28:54.653Z,6.80
2019-01-15T15:36:52.417Z,9.17
2019-01-15T15:47:36.949Z,6.23
2019-01-15T15:50:44.397Z,6.30
2019-01-15T15:53:30.041Z,9.17
2019-01-15T15:56:15.694Z,7.70
2019-01-15T15:59:01.346Z,11.70
2019-01-15T16:01:46.996Z,13.80
2019-01-15T16:04:32.636Z,9.77
2019-01-15T16:09:52.210Z,12.50
2019-01-15T16:15:16.127Z,13.00
2019-01-15T16:18:01.786Z,16.67
2019-01-15T16:20:47.445Z,16.67
2019-01-15T16:28:50.016Z,18.60
2019-01-15T16:34:44.755Z,25.87
2019-01-15T16:37:30.462Z,16.90
2019-01-15T16:40:16.104Z,22.73
2019-01-15T16:43:01.795Z,20.70
2019-01-15T16:45:47.429Z,22.00
2019-01-15T16:48:33.089Z,19.03
2019-01-15T16:51:18.724Z,19.30
2019-01-15T16:54:04.405Z,17.80
2019-01-15T16:56:50.057Z,20.07
2019-01-15T16:59:35.710Z,13.20
2019-01-15T17:02:21.357Z,19.00
2019-01-15T17:05:07.008Z,18.50
2019-01-15T17:07:52.644Z,26.00
2019-01-15T17:13:12.160Z,28.27
2019-01-15T17:15:57.814Z,34.00
2019-01-15T17:21:30.873Z,23.57
2019-01-15T17:24:16.532Z,36.77
2019-01-15T17:29:49.506Z,33.03
2019-01-15T17:32:35.153Z,30.23
2019-01-15T17:35:20.808Z,31.83
2019-01-15T17:38:06.453Z,28.13
2019-01-15T17:40:52.112Z,37.63
2019-01-15T17:46:25.068Z,34.87
2019-01-15T17:49:10.705Z,30.20
2019-01-15T17:51:56.364Z,33.37
2019-01-15T17:54:42.008Z,36.83
2019-01-15T18:02:35.020Z,38.67
2019-01-15T18:08:07.966Z,42.47
2019-01-15T18:16:14.408Z,47.17
2019-01-15T18:19:00.050Z,45.60
2019-01-15T18:21:45.706Z,44.30
2019-01-15T18:24:31.372Z,53.33
2019-01-15T18:27:17.035Z,50.90
2019-01-15T18:30:02.678Z,42.23
2019-01-15T18:38:40.428Z,44.23
2019-01-15T18:41:26.073Z,41.03
2019-01-15T18:52:02.950Z,50.07
2019-01-15T18:54:48.757Z,58.40
2019-01-15T18:57:34.393Z,49.40
2019-01-15T19:00:20.109Z,51.17
2019-01-15T19:03:05.882Z,52.53
2019-01-15T19:05:52.070Z,43.67
2019-01-15T19:11:11.065Z,53.10
2019-01-15T19:13:56.932Z,32.30
2019-01-15T19:16:42.589Z,38.93
2019-01-15T19:22:06.256Z,36.73
2019-01-15T19:24:51.952Z,37.87
2019-01-15T19:27:37.609Z,31.03
2019-01-15T19:30:45.055Z,30.97
2019-01-15T19:33:30.742Z,27.33
2019-01-15T19:38:54.659Z,22.67
2019-01-15T19:41:40.330Z,21.67
2019-01-15T19:44:25.983Z,21.73
2019-01-15T19:47:11.701Z,18.50
2019-01-15T19:49:57.372Z,19.60
2019-01-15T19:55:30.336Z,20.47
2019-01-15T20:03:41.373Z,20.37
2019-01-15T20:06:29.763Z,20.03
2019-01-15T20:09:15.442Z,14.17
2019-01-15T20:17:18.263Z,11.93
2019-01-15T20:20:00.595Z,11.17
2019-01-15T20:22:47.249Z,12.43
2019-01-15T20:28:06.605Z,10.23
2019-01-15T20:30:52.521Z,8.77
2019-01-15T20:33:38.096Z,12.90
2019-01-15T20:36:23.757Z,9.67
2019-01-15T20:47:28.686Z,10.77
2019-01-15T20:50:14.346Z,9.67
2019-01-15T20:53:00.020Z,12.73
2019-01-15T20:58:33.268Z,6.90
2019-01-15T21:01:18.904Z,13.07
2019-01-15T21:04:04.557Z,13.17
2019-01-15T21:09:57.402Z,8.43
2019-01-15T21:12:43.091Z,11.30
2019-01-15T21:15:50.517Z,12.10
2019-01-15T21:18:36.289Z,12.83
2019-01-15T21:21:22.159Z,15.57
2019-01-15T21:24:07.880Z,17.60
2019-01-15T21:26:53.537Z,14.73
2019-01-15T21:29:39.186Z,15.27
2019-01-15T21:35:12.141Z,24.00
2019-01-15T21:37:57.789Z,23.03
2019-01-15T21:40:43.438Z,31.23
2019-01-15T21:51:19.147Z,45.10
2019-01-15T21:54:04.798Z,51.20
2019-01-15T21:56:50.443Z,38.83
2019-01-15T21:59:36.100Z,32.93
2019-01-15T22:02:21.741Z,33.53
2019-01-15T22:05:07.397Z,38.03
2019-01-15T22:07:53.040Z,41.47
2019-01-15T22:18:24.142Z,50.47
2019-01-15T22:21:09.789Z,34.60
2019-01-15T22:23:55.430Z,44.17
2019-01-15T22:26:41.102Z,23.90
2019-01-15T22:29:26.738Z,35.57
2019-01-15T22:32:34.383Z,34.03
2019-01-15T22:35:20.026Z,35.37
2019-01-15T22:38:05.735Z,42.80
2019-01-15T22:41:00.033Z,36.97
2019-01-15T22:46:32.994Z,27.87
2019-01-15T22:49:18.655Z,37.63
2019-01-15T22:52:04.310Z,34.93
2019-01-15T22:57:37.412Z,30.37
2019-01-15T23:00:44.832Z,31.57
2019-01-15T23:06:08.534Z,32.57
2019-01-15T23:08:54.185Z,31.30
2019-01-15T23:11:39.832Z,33.57
2019-01-15T23:19:37.525Z,47.17
2019-01-15T23:25:10.600Z,31.50
2019-01-15T23:27:56.252Z,35.50
2019-01-15T23:30:41.901Z,37.40
2019-01-15T23:33:27.553Z,34.97
2019-01-15T23:41:34.040Z,39.93
2019-01-15T23:44:19.694Z,27.60
2019-01-15T23:49:52.655Z,33.57
2019-01-15T23:52:38.293Z,22.80
2019-01-15T23:55:45.728Z,37.93
2019-01-15T23:58:53.171Z,33.20
